createdAt,value
2022-10-24T00:01:29.469Z,14.84
2022-10-24T00:03:57.940Z,13.88
2022-10-24T00:06:25.712Z,14.78
2022-10-24T00:08:53.408Z,16.76
2022-10-24T00:11:27.228Z,17.63
2022-10-24T00:13:56.833Z,17.11
2022-10-24T00:16:27.838Z,15.65
2022-10-24T00:18:55.494Z,14.44
2022-10-24T00:21:23.267Z,13.58
2022-10-24T00:23:51.137Z,14.05
2022-10-24T00:26:18.781Z,16.28
2022-10-24T00:28:46.495Z,17.71
2022-10-24T00:31:17.823Z,17.75
2022-10-24T00:33:46.371Z,16.27
2022-10-24T00:36:16.994Z,15.01
2022-10-24T00:38:44.837Z,14.09
2022-10-24T00:41:20.771Z,14.38
2022-10-24T00:43:48.836Z,16.62
2022-10-24T00:46:19.790Z,17.76
2022-10-24T00:48:51.912Z,17.33
2022-10-24T00:51:30.609Z,15.88
2022-10-24T00:54:02.869Z,14.66
2022-10-24T00:56:41.887Z,13.77
2022-10-24T00:59:12.652Z,14.32
2022-10-24T01:01:42.757Z,16.53
2022-10-24T01:04:13.523Z,17.54
2022-10-24T01:07:03.325Z,17.38
2022-10-24T01:09:48.016Z,15.78
2022-10-24T01:12:42.332Z,14.53
2022-10-24T01:15:17.497Z,13.64
2022-10-24T01:18:03.300Z,14.93
2022-10-24T01:20:40.399Z,16.94
2022-10-24T01:23:35.448Z,17.61
2022-10-24T01:26:12.518Z,16.47
2022-10-24T01:28:54.807Z,15.05
2022-10-24T01:31:35.571Z,13.97
2022-10-24T01:34:10.252Z,14.43
2022-10-24T01:37:03.862Z,16.33
2022-10-24T01:39:39.241Z,17.60
2022-10-24T01:42:09.364Z,17.45
2022-10-24T01:44:44.210Z,15.99
2022-10-24T01:47:19.784Z,14.67
2022-10-24T01:49:56.884Z,13.70
2022-10-24T01:52:30.195Z,14.21
2022-10-24T01:54:57.886Z,16.28
2022-10-24T01:57:30.490Z,17.21
2022-10-24T01:59:58.276Z,17.11
2022-10-24T02:02:38.554Z,15.74
2022-10-24T02:05:34.756Z,14.41
2022-10-24T02:08:08.770Z,13.32
2022-10-24T02:10:45.362Z,13.76
2022-10-24T02:13:23.597Z,16.03
2022-10-24T02:15:55.543Z,17.32
2022-10-24T02:18:23.538Z,17.42
2022-10-24T02:20:56.101Z,15.94
2022-10-24T02:23:34.484Z,14.45
2022-10-24T02:26:09.566Z,14.37
2022-10-24T02:28:43.433Z,16.30
2022-10-24T02:31:21.800Z,17.37
2022-10-24T02:33:51.727Z,17.08
2022-10-24T02:36:25.377Z,15.55
2022-10-24T02:38:56.195Z,14.18
2022-10-24T02:41:32.442Z,13.30
2022-10-24T02:44:02.382Z,14.71
2022-10-24T02:46:31.608Z,16.52
2022-10-24T02:49:02.107Z,17.34
2022-10-24T02:51:33.336Z,17.69
2022-10-24T02:54:06.824Z,16.76
2022-10-24T02:56:37.558Z,15.19
2022-10-24T02:59:05.215Z,13.99
2022-10-24T03:01:33.167Z,14.16
2022-10-24T03:04:00.834Z,16.30
2022-10-24T03:06:28.591Z,17.57
2022-10-24T03:08:56.625Z,17.59
2022-10-24T03:11:24.582Z,16.02
2022-10-24T03:13:52.812Z,14.54
2022-10-24T03:16:20.460Z,14.13
2022-10-24T03:18:48.141Z,16.03
2022-10-24T03:21:15.752Z,17.20
2022-10-24T03:23:43.408Z,17.33
2022-10-24T03:26:11.049Z,15.86
2022-10-24T03:28:39.216Z,14.40
2022-10-24T03:31:07.048Z,14.33
2022-10-24T03:33:34.809Z,16.19
2022-10-24T03:36:02.675Z,17.21
2022-10-24T03:38:30.305Z,16.93
2022-10-24T03:40:58.035Z,15.39
2022-10-24T03:43:25.746Z,14.02
2022-10-24T03:45:53.346Z,13.02
2022-10-24T03:48:21.048Z,14.14
2022-10-24T03:50:48.730Z,16.30
2022-10-24T03:53:16.330Z,17.34
2022-10-24T03:55:44.024Z,17.59
2022-10-24T03:58:11.683Z,16.26
2022-10-24T04:00:40.273Z,14.72
2022-10-24T04:03:09.138Z,14.52
2022-10-24T04:08:10.301Z,17.44
2022-10-24T04:10:37.961Z,17.41
2022-10-24T04:13:05.559Z,15.86
2022-10-24T04:15:33.268Z,14.43
2022-10-24T04:18:00.927Z,13.37
2022-10-24T04:20:28.794Z,13.69
2022-10-24T04:22:57.185Z,15.60
2022-10-24T04:25:26.079Z,16.42
2022-10-24T04:27:53.693Z,16.79
2022-10-24T04:30:21.400Z,17.32
2022-10-24T04:32:49.005Z,17.18
2022-10-24T04:35:16.788Z,15.61
2022-10-24T04:37:44.432Z,14.23
2022-10-24T04:40:12.131Z,13.24
2022-10-24T04:42:40.215Z,13.72
2022-10-24T04:45:08.831Z,15.82
2022-10-24T04:47:36.652Z,16.96
2022-10-24T04:50:05.164Z,17.36
2022-10-24T04:52:32.810Z,16.09
2022-10-24T04:55:00.479Z,14.65
2022-10-24T04:57:28.122Z,13.54
2022-10-24T04:59:56.245Z,13.77
2022-10-24T05:02:23.992Z,15.68
2022-10-24T05:04:51.748Z,16.81
2022-10-24T05:07:21.559Z,17.34
2022-10-24T05:09:49.228Z,17.01
2022-10-24T05:12:16.932Z,15.49
2022-10-24T05:14:47.099Z,14.21
2022-10-24T05:17:14.799Z,14.16
2022-10-24T05:19:42.457Z,15.87
2022-10-24T05:22:11.004Z,16.79
2022-10-24T05:24:39.136Z,17.47
2022-10-24T05:27:06.906Z,16.94
2022-10-24T05:29:34.700Z,15.41
2022-10-24T05:32:02.466Z,14.10
2022-10-24T05:34:30.133Z,14.25
2022-10-24T05:36:58.749Z,16.41
2022-10-24T05:39:26.378Z,17.55
2022-10-24T05:41:55.350Z,17.50
2022-10-24T05:44:23.393Z,15.94
2022-10-24T05:46:51.141Z,14.53
2022-10-24T05:49:18.941Z,13.71
2022-10-24T05:51:46.639Z,15.01
2022-10-24T05:54:14.317Z,16.45
2022-10-24T05:56:41.961Z,17.12
2022-10-24T05:59:10.109Z,17.63
2022-10-24T06:01:38.281Z,17.02
2022-10-24T06:04:07.812Z,15.55
2022-10-24T06:06:43.049Z,14.36
2022-10-24T06:09:12.135Z,14.70
2022-10-24T06:11:40.085Z,16.68
2022-10-24T06:14:08.049Z,17.38
2022-10-24T06:16:36.198Z,17.27
2022-10-24T06:19:04.012Z,15.97
2022-10-24T06:21:31.946Z,14.69
2022-10-24T06:23:59.690Z,14.60
2022-10-24T06:26:27.401Z,16.51
2022-10-24T06:28:55.316Z,17.65
2022-10-24T06:31:22.987Z,17.90
2022-10-24T06:33:50.869Z,16.54
2022-10-24T06:36:18.612Z,15.11
2022-10-24T06:38:46.347Z,14.03
2022-10-24T06:41:15.084Z,14.63
2022-10-24T06:43:43.265Z,16.53
2022-10-24T06:46:14.043Z,17.55
2022-10-24T06:48:41.970Z,17.88
2022-10-24T06:51:09.677Z,17.02
2022-10-24T06:53:37.504Z,15.72
2022-10-24T06:56:06.468Z,14.68
2022-10-24T06:58:36.174Z,14.76
2022-10-24T07:01:09.791Z,16.65
2022-10-24T07:03:38.642Z,17.80
2022-10-24T07:06:24.226Z,17.75
2022-10-24T07:08:54.751Z,16.13
2022-10-24T07:11:22.647Z,14.80
2022-10-24T07:13:51.196Z,14.81
2022-10-24T07:16:19.677Z,16.45
2022-10-24T07:18:48.245Z,17.47
2022-10-24T07:21:24.564Z,18.25
2022-10-24T07:23:53.407Z,18.05
2022-10-24T07:26:22.484Z,16.63
2022-10-24T07:28:54.715Z,15.42
2022-10-24T07:31:25.065Z,15.45
2022-10-24T07:33:52.998Z,17.33
2022-10-24T07:36:23.051Z,18.65
2022-10-24T07:38:53.455Z,18.64
2022-10-24T07:41:21.309Z,17.21
2022-10-24T07:43:49.514Z,16.00
2022-10-24T07:46:19.217Z,15.18
2022-10-24T07:48:49.865Z,15.64
2022-10-24T07:51:18.553Z,17.62
2022-10-24T07:53:46.275Z,18.62
2022-10-24T07:56:15.720Z,18.66
2022-10-24T07:58:44.212Z,17.38
2022-10-24T08:01:16.085Z,16.22
2022-10-24T08:03:43.900Z,15.35
2022-10-24T08:06:20.700Z,15.92
2022-10-24T08:08:48.879Z,18.27
2022-10-24T08:11:22.122Z,19.24
2022-10-24T08:13:51.280Z,19.29
2022-10-24T08:16:21.123Z,18.00
2022-10-24T08:18:51.429Z,16.75
2022-10-24T08:21:21.460Z,15.83
2022-10-24T08:23:51.952Z,16.31
2022-10-24T08:26:22.362Z,18.45
2022-10-24T08:28:50.283Z,19.28
2022-10-24T08:31:20.675Z,19.60
2022-10-24T08:33:51.736Z,18.32
2022-10-24T08:36:25.411Z,17.11
2022-10-24T08:38:53.406Z,16.24
2022-10-24T08:41:20.980Z,16.67
2022-10-24T08:43:48.653Z,18.88
2022-10-24T08:46:28.520Z,19.85
2022-10-24T08:49:05.372Z,19.71
2022-10-24T08:51:42.165Z,18.43
2022-10-24T08:54:22.907Z,17.44
2022-10-24T08:56:52.542Z,17.81
2022-10-24T08:59:21.047Z,20.05
2022-10-24T09:01:53.342Z,21.23
2022-10-24T09:04:24.961Z,20.82
2022-10-24T09:06:55.143Z,19.84
2022-10-24T09:09:31.827Z,19.11
2022-10-24T09:12:14.137Z,18.57
2022-10-24T09:14:44.587Z,18.14
2022-10-24T09:17:30.458Z,17.78
2022-10-24T09:20:03.780Z,17.82
2022-10-24T09:22:35.044Z,19.81
2022-10-24T09:25:13.989Z,20.80
2022-10-24T09:27:42.718Z,19.95
2022-10-24T09:30:29.957Z,19.20
2022-10-24T09:33:12.892Z,18.57
2022-10-24T09:35:42.694Z,18.16
2022-10-24T09:38:22.514Z,17.86
2022-10-24T09:40:52.471Z,17.54
2022-10-24T09:43:32.449Z,18.37
2022-10-24T09:46:12.689Z,20.84
2022-10-24T09:48:49.880Z,21.44
2022-10-24T09:51:25.294Z,20.34
2022-10-24T09:54:00.900Z,19.41
2022-10-24T09:56:38.131Z,18.75
2022-10-24T09:59:31.090Z,18.27
2022-10-24T10:02:35.180Z,17.93
2022-10-24T10:05:03.186Z,17.65
2022-10-24T10:07:35.141Z,17.46
2022-10-24T10:10:19.951Z,18.28
2022-10-24T10:12:57.710Z,20.89
2022-10-24T10:15:35.378Z,21.71
2022-10-24T10:18:21.922Z,20.73
2022-10-24T10:21:11.087Z,19.77
2022-10-24T10:23:49.560Z,19.11
2022-10-24T10:26:21.630Z,18.68
2022-10-24T10:29:19.117Z,18.33
2022-10-24T10:31:49.555Z,18.02
2022-10-24T10:34:24.882Z,18.90
2022-10-24T10:37:18.934Z,21.53
2022-10-24T10:40:17.562Z,21.89
2022-10-24T10:42:48.334Z,20.54
2022-10-24T10:45:46.842Z,19.64
2022-10-24T10:48:37.690Z,18.87
2022-10-24T10:51:20.776Z,18.35
2022-10-24T10:54:05.336Z,18.00
2022-10-24T10:56:52.209Z,17.74
2022-10-24T10:59:28.597Z,18.85
2022-10-24T11:02:31.117Z,21.29
2022-10-24T11:05:08.264Z,21.62
2022-10-24T11:07:50.947Z,20.66
2022-10-24T11:10:23.052Z,19.84
2022-10-24T11:12:51.201Z,19.32
2022-10-24T11:15:24.453Z,18.94
2022-10-24T11:17:58.298Z,18.59
2022-10-24T11:20:37.409Z,18.34
2022-10-24T11:23:14.214Z,18.18
2022-10-24T11:26:03.739Z,19.20
2022-10-24T11:28:50.004Z,21.76
2022-10-24T11:31:25.159Z,22.17
2022-10-24T11:34:04.376Z,21.11
2022-10-24T11:36:53.353Z,20.20
2022-10-24T11:39:34.788Z,19.56
2022-10-24T11:42:33.873Z,19.17
2022-10-24T11:45:10.616Z,18.84
2022-10-24T11:47:47.293Z,18.61
2022-10-24T11:50:39.736Z,18.51
2022-10-24T11:53:19.853Z,19.95
2022-10-24T11:55:54.697Z,22.42
2022-10-24T11:58:25.753Z,22.59
2022-10-24T12:01:27.586Z,21.85
2022-10-24T12:04:18.202Z,21.15
2022-10-24T12:06:50.846Z,20.67
2022-10-24T12:09:48.956Z,20.36
2022-10-24T12:13:04.231Z,20.09
2022-10-24T12:15:50.568Z,19.94
2022-10-24T12:18:24.124Z,19.76
2022-10-24T12:20:55.610Z,19.63
2022-10-24T12:23:29.094Z,19.56
2022-10-24T12:26:14.950Z,19.48
2022-10-24T12:28:43.572Z,19.38
2022-10-24T12:31:14.813Z,19.24
2022-10-24T12:33:44.787Z,19.09
2022-10-24T12:36:13.213Z,18.95
2022-10-24T12:38:41.134Z,18.84
2022-10-24T12:41:33.626Z,18.76
2022-10-24T12:44:25.316Z,19.27
2022-10-24T12:46:54.170Z,22.00
2022-10-24T12:49:33.129Z,22.67
2022-10-24T12:52:32.824Z,21.79
2022-10-24T12:55:00.455Z,20.93
2022-10-24T12:57:32.021Z,20.45
2022-10-24T13:00:01.577Z,20.11
2022-10-24T13:02:32.106Z,19.83
2022-10-24T13:05:07.869Z,19.59
2022-10-24T13:08:10.797Z,19.38
2022-10-24T13:10:54.087Z,19.19
2022-10-24T13:13:21.775Z,19.04
2022-10-24T13:16:08.213Z,18.93
2022-10-24T13:18:47.820Z,18.83
2022-10-24T13:21:18.659Z,18.76
2022-10-24T13:23:48.143Z,18.68
2022-10-24T13:27:12.651Z,18.60
2022-10-24T13:29:41.381Z,18.51
2022-10-24T13:32:12.034Z,18.45
2022-10-24T13:34:52.654Z,18.39
2022-10-24T13:37:23.307Z,19.59
2022-10-24T13:39:55.653Z,21.84
2022-10-24T13:42:37.605Z,22.26
2022-10-24T13:45:52.115Z,21.30
2022-10-24T13:48:21.629Z,20.39
2022-10-24T13:51:16.789Z,19.96
2022-10-24T13:53:50.307Z,19.64
2022-10-24T13:56:18.156Z,19.43
2022-10-24T13:58:46.190Z,19.25
2022-10-24T14:01:21.046Z,19.04
2022-10-24T14:03:50.241Z,18.83
2022-10-24T14:06:25.755Z,18.70
2022-10-24T14:09:06.532Z,18.55
2022-10-24T14:11:40.868Z,18.44
2022-10-24T14:14:46.338Z,19.45
2022-10-24T14:17:23.777Z,22.12
2022-10-24T14:19:56.900Z,22.64
2022-10-24T14:22:35.377Z,21.71
2022-10-24T14:25:03.831Z,20.86
2022-10-24T14:27:31.639Z,20.29
2022-10-24T14:30:04.756Z,19.89
2022-10-24T14:32:32.549Z,19.58
2022-10-24T14:37:36.923Z,19.09
2022-10-24T14:40:05.437Z,18.88
2022-10-24T14:42:33.666Z,19.61
2022-10-24T14:45:01.470Z,22.11
2022-10-24T14:47:29.495Z,22.96
2022-10-24T14:50:00.545Z,21.95
2022-10-24T14:52:39.095Z,20.98
2022-10-24T14:55:20.728Z,20.23
2022-10-24T14:57:51.215Z,19.65
2022-10-24T15:00:24.801Z,19.21
2022-10-24T15:02:56.802Z,18.83
2022-10-24T15:05:31.595Z,18.48
2022-10-24T15:08:21.658Z,19.17
2022-10-24T15:11:05.069Z,21.79
2022-10-24T15:13:48.000Z,22.22
2022-10-24T15:16:31.629Z,20.82
2022-10-24T15:18:59.384Z,19.75
2022-10-24T15:21:32.909Z,19.06
2022-10-24T15:24:02.191Z,18.53
2022-10-24T15:26:34.740Z,18.09
2022-10-24T15:29:07.707Z,17.67
2022-10-24T15:31:38.142Z,18.63
2022-10-24T15:34:08.785Z,20.93
2022-10-24T15:36:42.743Z,21.99
2022-10-24T15:39:10.323Z,21.23
2022-10-24T15:41:39.500Z,19.88
2022-10-24T15:44:17.118Z,18.86
2022-10-24T15:46:47.319Z,18.09
2022-10-24T15:49:15.051Z,18.54
2022-10-24T15:51:49.902Z,20.80
2022-10-24T15:54:21.826Z,21.71
2022-10-24T15:56:50.461Z,20.67
2022-10-24T15:59:19.960Z,19.51
2022-10-24T16:02:00.469Z,18.65
2022-10-24T16:04:28.672Z,17.92
2022-10-24T16:06:56.423Z,18.46
2022-10-24T16:09:31.313Z,20.72
2022-10-24T16:11:59.078Z,21.12
2022-10-24T16:14:28.008Z,19.85
2022-10-24T16:16:56.109Z,18.72
2022-10-24T16:19:26.591Z,17.90
2022-10-24T16:25:23.148Z,18.69
2022-10-24T16:27:51.067Z,20.42
2022-10-24T16:30:22.171Z,20.42
2022-10-24T16:32:51.079Z,19.18
2022-10-24T16:35:25.787Z,18.05
2022-10-24T16:37:54.900Z,17.20
2022-10-24T16:40:23.702Z,17.63
2022-10-24T16:42:53.210Z,19.54
2022-10-24T16:45:21.615Z,20.34
2022-10-24T16:47:49.602Z,20.69
2022-10-24T16:50:24.601Z,19.75
2022-10-24T16:52:54.036Z,18.44
2022-10-24T16:55:23.104Z,17.51
2022-10-24T16:57:51.102Z,17.91
2022-10-24T17:00:20.875Z,19.73
2022-10-24T17:02:51.283Z,20.30
2022-10-24T17:05:21.633Z,20.68
2022-10-24T17:07:50.080Z,21.39
2022-10-24T17:10:20.685Z,20.96
2022-10-24T17:12:52.091Z,19.54
2022-10-24T17:15:22.288Z,18.45
2022-10-24T17:17:50.603Z,17.63
2022-10-24T17:20:19.074Z,17.05
2022-10-24T17:22:46.987Z,17.44
2022-10-24T17:25:22.870Z,19.40
2022-10-24T17:27:50.867Z,20.38
2022-10-24T17:30:25.479Z,19.40
2022-10-24T17:32:53.577Z,18.12
2022-10-24T17:35:25.935Z,17.15
2022-10-24T17:38:11.725Z,16.43
2022-10-24T17:40:48.256Z,17.18
2022-10-24T17:43:27.309Z,19.14
2022-10-24T17:45:57.164Z,20.30
2022-10-24T17:48:25.714Z,20.14
2022-10-24T17:50:56.572Z,18.71
2022-10-24T17:53:24.447Z,17.53
2022-10-24T17:55:52.186Z,16.75
2022-10-24T17:58:19.962Z,17.05
2022-10-24T18:00:47.715Z,19.03
2022-10-24T18:03:15.632Z,20.03
2022-10-24T18:05:43.248Z,19.44
2022-10-24T18:08:12.232Z,18.08
2022-10-24T18:10:41.145Z,17.00
2022-10-24T18:13:09.737Z,16.25
2022-10-24T18:15:37.835Z,16.73
2022-10-24T18:18:05.894Z,18.72
2022-10-24T18:20:34.764Z,20.17
2022-10-24T18:23:02.667Z,20.18
2022-10-24T18:25:30.440Z,18.81
2022-10-24T18:27:58.222Z,17.63
2022-10-24T18:30:27.342Z,16.76
2022-10-24T18:32:55.054Z,17.17
2022-10-24T18:35:22.957Z,19.38
2022-10-24T18:40:23.997Z,19.18
2022-10-24T18:43:00.983Z,17.87
2022-10-24T18:45:29.422Z,16.88
2022-10-24T18:47:57.802Z,17.16
2022-10-24T18:50:26.146Z,18.82
2022-10-24T18:53:06.080Z,20.15
2022-10-24T18:55:35.496Z,20.16
2022-10-24T18:58:03.596Z,18.84
2022-10-24T19:00:33.014Z,17.68
2022-10-24T19:03:15.884Z,16.89
2022-10-24T19:05:55.243Z,17.54
2022-10-24T19:08:25.474Z,19.48
2022-10-24T19:10:56.511Z,20.27
2022-10-24T19:13:26.557Z,20.57
2022-10-24T19:16:04.483Z,19.59
2022-10-24T19:18:35.957Z,18.33
2022-10-24T19:21:06.822Z,17.46
2022-10-24T19:23:34.491Z,18.08
2022-10-24T19:26:02.138Z,20.20
2022-10-24T19:28:29.842Z,21.22
2022-10-24T19:30:57.526Z,21.20
2022-10-24T19:33:28.059Z,19.99
2022-10-24T19:35:56.122Z,18.85
2022-10-24T19:38:24.436Z,18.94
2022-10-24T19:40:54.046Z,20.74
2022-10-24T19:43:23.838Z,21.68
2022-10-24T19:46:07.501Z,21.36
2022-10-24T19:48:38.922Z,20.02
2022-10-24T19:51:12.776Z,19.04
2022-10-24T19:53:43.135Z,19.25
2022-10-24T19:56:14.917Z,21.34
2022-10-24T19:58:43.534Z,21.91
2022-10-24T20:01:13.708Z,20.75
2022-10-24T20:03:43.886Z,19.61
2022-10-24T20:06:12.920Z,18.77
2022-10-24T20:08:42.854Z,19.17
2022-10-24T20:11:10.521Z,21.00
2022-10-24T20:13:39.592Z,22.19
2022-10-24T20:16:08.225Z,21.72
2022-10-24T20:18:37.975Z,20.42
2022-10-24T20:21:10.399Z,19.37
2022-10-24T20:23:38.501Z,18.61
2022-10-24T20:26:10.518Z,19.14
2022-10-24T20:28:43.234Z,21.23
2022-10-24T20:31:21.550Z,22.21
2022-10-24T20:33:49.885Z,21.27
2022-10-24T20:36:18.160Z,20.05
2022-10-24T20:38:47.112Z,19.16
2022-10-24T20:41:14.798Z,18.50
2022-10-24T20:43:42.560Z,19.02
2022-10-24T20:46:10.673Z,20.95
2022-10-24T20:48:38.392Z,21.81
2022-10-24T20:51:09.016Z,21.33
2022-10-24T20:53:37.300Z,20.12
2022-10-24T20:56:06.601Z,19.18
2022-10-24T20:58:40.001Z,18.46
2022-10-24T21:01:12.467Z,19.06
2022-10-24T21:03:40.722Z,21.28
2022-10-24T21:06:34.837Z,22.22
2022-10-24T21:09:04.784Z,21.24
2022-10-24T21:11:33.768Z,20.05
2022-10-24T21:14:04.235Z,19.18
2022-10-24T21:16:32.683Z,18.54
2022-10-24T21:19:00.889Z,19.23
2022-10-24T21:21:28.853Z,21.53
2022-10-24T21:24:02.456Z,22.39
2022-10-24T21:26:38.297Z,21.22
2022-10-24T21:29:21.002Z,20.04
2022-10-24T21:31:55.801Z,19.09
2022-10-24T21:34:23.508Z,19.38
2022-10-24T21:36:51.140Z,21.58
2022-10-24T21:39:18.848Z,22.31
2022-10-24T21:41:46.781Z,21.22
2022-10-24T21:44:14.769Z,20.11
2022-10-24T21:46:43.152Z,19.28
2022-10-24T21:49:10.869Z,18.67
2022-10-24T21:51:41.399Z,19.23
2022-10-24T21:54:22.301Z,21.41
2022-10-24T21:56:50.195Z,22.17
2022-10-24T21:59:20.265Z,21.13
2022-10-24T22:01:50.252Z,20.03
2022-10-24T22:04:18.328Z,19.23
2022-10-24T22:06:46.802Z,18.63
2022-10-24T22:09:17.916Z,19.11
2022-10-24T22:11:45.954Z,21.09
2022-10-24T22:14:15.933Z,21.90
2022-10-24T22:16:44.305Z,21.25
2022-10-24T22:19:13.511Z,20.17
2022-10-24T22:21:42.602Z,19.33
2022-10-24T22:24:16.581Z,18.70
2022-10-24T22:26:44.496Z,19.20
2022-10-24T22:29:19.052Z,21.01
2022-10-24T22:31:48.074Z,21.89
2022-10-24T22:34:22.636Z,21.55
2022-10-24T22:36:59.398Z,20.37
2022-10-24T22:39:28.047Z,19.39
2022-10-24T22:41:56.272Z,18.72
2022-10-24T22:44:24.441Z,19.00
2022-10-24T22:47:17.730Z,20.50
2022-10-24T22:50:23.165Z,21.22
2022-10-24T22:52:51.343Z,21.48
2022-10-24T22:55:34.305Z,21.37
2022-10-24T22:58:02.665Z,20.26
2022-10-24T23:00:31.042Z,19.38
2022-10-24T23:03:12.728Z,18.68
2022-10-24T23:05:59.795Z,19.16
2022-10-24T23:08:40.890Z,20.93
2022-10-24T23:11:12.096Z,21.79
2022-10-24T23:13:43.274Z,21.80
2022-10-24T23:16:34.206Z,20.65
2022-10-24T23:19:12.113Z,19.44
2022-10-24T23:21:45.446Z,18.60
2022-10-24T23:24:16.882Z,18.71
2022-10-24T23:26:47.174Z,20.67
2022-10-24T23:29:26.542Z,21.91
2022-10-24T23:31:54.501Z,21.84
2022-10-24T23:34:22.449Z,20.55
2022-10-24T23:36:50.646Z,19.40
2022-10-24T23:39:18.491Z,18.55
2022-10-24T23:41:46.486Z,18.66
2022-10-24T23:44:14.307Z,20.35
2022-10-24T23:46:48.162Z,21.67
2022-10-24T23:49:26.007Z,21.87
2022-10-24T23:52:17.817Z,20.50
2022-10-24T23:54:45.839Z,19.18
2022-10-24T23:57:19.653Z,18.35
2022-10-24T23:59:47.375Z,18.63
